Time;durP1;ratioP1;P1;durP2;ratioP2;P2;SDS_P1;SDS_P2;PMS_P1;PMS_P2;Temp;Humidity;BMP_temperature;BMP_pressure;BME280_temperature;BME280_humidity;BME280_pressure;Samples;Min_cycle;Max_cycle;Signal;HPM_P1;HPM_P2
2023/02/08 00:01:10;;;;;;;43.33;17.20;;;;;;;;;;5085983;28;20118;-66
2023/02/08 00:03:35;;;;;;;42.15;17.80;;;;;;;;;;5088603;28;20542;-65
2023/02/08 00:06:01;;;;;;;42.13;17.17;;;;;;;;;;5087409;28;20213;-66
2023/02/08 00:08:26;;;;;;;42.78;17.70;;;;;;;;;;5091018;28;20053;-66
2023/02/08 00:10:51;;;;;;;41.03;17.17;;;;;;;;;;5092092;28;20153;-66
2023/02/08 00:13:16;;;;;;;46.50;18.67;;;;;;;;;;5094815;28;20013;-67
2023/02/08 00:15:42;;;;;;;46.40;18.43;;;;;;;;;;5097361;28;20095;-65
2023/02/08 00:18:07;;;;;;;43.15;17.95;;;;;;;;;;5101745;28;20584;-67
2023/02/08 00:20:32;;;;;;;40.90;17.53;;;;;;;;;;5094116;28;20092;-65
2023/02/08 00:22:57;;;;;;;39.67;16.55;;;;;;;;;;5096661;28;20027;-66
2023/02/08 00:25:22;;;;;;;42.50;17.92;;;;;;;;;;5094424;28;20107;-65
2023/02/08 00:27:48;;;;;;;40.60;16.67;;;;;;;;;;5087739;28;20039;-65
2023/02/08 00:30:13;;;;;;;39.95;16.92;;;;;;;;;;5071064;28;20075;-66
2023/02/08 00:32:38;;;;;;;46.03;17.92;;;;;;;;;;5071190;28;20078;-66
2023/02/08 00:35:03;;;;;;;39.92;17.45;;;;;;;;;;5071615;28;20028;-65
2023/02/08 00:37:28;;;;;;;39.03;16.80;;;;;;;;;;5074988;28;20020;-64
2023/02/08 00:39:53;;;;;;;43.27;17.60;;;;;;;;;;5090890;28;20661;-65
2023/02/08 00:42:18;;;;;;;43.17;16.83;;;;;;;;;;5091677;28;20023;-66
2023/02/08 00:44:44;;;;;;;41.47;17.42;;;;;;;;;;5087769;28;20028;-67
2023/02/08 00:47:09;;;;;;;42.90;16.80;;;;;;;;;;5072291;28;20029;-65
2023/02/08 00:49:35;;;;;;;40.30;16.17;;;;;;;;;;5070393;28;20509;-67
2023/02/08 00:52:00;;;;;;;39.35;16.08;;;;;;;;;;5074984;28;20116;-65
2023/02/08 00:54:25;;;;;;;39.17;17.00;;;;;;;;;;5090605;28;20050;-66
2023/02/08 00:56:50;;;;;;;38.23;16.07;;;;;;;;;;5088351;28;20012;-65
2023/02/08 00:59:15;;;;;;;42.43;16.23;;;;;;;;;;5080788;28;20134;-66
2023/02/08 01:01:41;;;;;;;40.87;18.00;;;;;;;;;;5089789;28;20381;-68
2023/02/08 01:04:06;;;;;;;35.92;15.02;;;;;;;;;;5074483;28;20020;-66
2023/02/08 01:06:31;;;;;;;40.17;16.80;;;;;;;;;;5078129;28;20012;-66
2023/02/08 01:08:56;;;;;;;37.77;16.60;;;;;;;;;;5091681;28;20035;-65
2023/02/08 01:11:24;;;;;;;48.92;18.15;;;;;;;;;;5090518;28;20165;-66
2023/02/08 01:13:49;;;;;;;41.83;17.45;;;;;;;;;;5087350;28;20028;-65
2023/02/08 01:16:16;;;;;;;46.15;18.13;;;;;;;;;;5084940;28;20631;-67
2023/02/08 01:18:43;;;;;;;43.47;17.35;;;;;;;;;;5084467;28;20070;-65
2023/02/08 01:21:09;;;;;;;40.83;16.15;;;;;;;;;;5081426;28;20468;-65
2023/02/08 01:23:35;;;;;;;40.80;16.40;;;;;;;;;;5090434;28;20031;-65
2023/02/08 01:26:00;;;;;;;40.90;16.45;;;;;;;;;;5090240;28;20016;-65
2023/02/08 01:28:25;;;;;;;37.03;15.90;;;;;;;;;;5079551;28;20108;-64
2023/02/08 01:30:51;;;;;;;44.00;16.70;;;;;;;;;;5090036;28;20031;-66
2023/02/08 01:33:16;;;;;;;42.90;17.90;;;;;;;;;;5090320;28;20227;-64
2023/02/08 01:35:41;;;;;;;44.10;16.88;;;;;;;;;;5089618;28;20032;-65
2023/02/08 01:38:06;;;;;;;36.23;16.33;;;;;;;;;;5088058;28;20404;-65
2023/02/08 01:40:31;;;;;;;42.25;17.02;;;;;;;;;;5089846;28;20024;-65
2023/02/08 01:42:56;;;;;;;43.95;19.25;;;;;;;;;;5090382;28;20034;-66
2023/02/08 01:45:28;;;;;;;41.23;16.50;;;;;;;;;;5089881;28;20107;-65
2023/02/08 01:48:02;;;;;;;42.88;15.88;;;;;;;;;;5090406;28;20048;-65
2023/02/08 01:50:30;;;;;;;41.03;15.75;;;;;;;;;;5090036;28;20032;-65
2023/02/08 01:52:55;;;;;;;44.45;16.88;;;;;;;;;;5088509;28;20023;-65
2023/02/08 01:55:30;;;;;;;41.47;16.98;;;;;;;;;;5092895;28;20103;-67
2023/02/08 01:57:58;;;;;;;39.28;16.05;;;;;;;;;;5097488;28;20040;-66
2023/02/08 02:00:24;;;;;;;41.67;15.38;;;;;;;;;;5090226;28;20107;-66
2023/02/08 02:02:52;;;;;;;35.80;14.30;;;;;;;;;;5090587;28;20099;-68
2023/02/08 02:05:17;;;;;;;38.53;15.40;;;;;;;;;;5090208;28;20438;-66
2023/02/08 02:07:43;;;;;;;37.38;15.95;;;;;;;;;;5081437;28;20025;-66
2023/02/08 02:10:13;;;;;;;38.05;14.50;;;;;;;;;;5077674;28;20054;-67
2023/02/08 02:12:39;;;;;;;35.55;14.75;;;;;;;;;;5088597;28;20099;-67
2023/02/08 02:15:05;;;;;;;37.33;15.20;;;;;;;;;;5087089;28;20027;-67
2023/02/08 02:17:30;;;;;;;37.03;15.82;;;;;;;;;;5074947;28;20063;-65
2023/02/08 02:20:12;;;;;;;37.53;14.20;;;;;;;;;;5079093;28;20027;-66
2023/02/08 02:22:53;;;;;;;33.38;13.43;;;;;;;;;;5075758;28;20078;-66
2023/02/08 02:25:21;;;;;;;31.52;14.07;;;;;;;;;;5074841;28;20016;-65
2023/02/08 02:28:05;;;;;;;36.38;15.35;;;;;;;;;;5086143;28;20130;-65
2023/02/08 02:30:39;;;;;;;32.85;13.35;;;;;;;;;;5086208;28;20040;-65
2023/02/08 02:33:29;;;;;;;35.13;14.98;;;;;;;;;;5086161;28;20397;-65
2023/02/08 02:36:00;;;;;;;30.65;12.60;;;;;;;;;;5084776;28;20055;-67
2023/02/08 02:38:34;;;;;;;33.88;12.73;;;;;;;;;;5081319;28;20061;-67
2023/02/08 02:41:11;;;;;;;34.25;13.50;;;;;;;;;;5089900;28;20020;-66
2023/02/08 02:43:46;;;;;;;36.70;14.18;;;;;;;;;;5085213;28;20497;-66
2023/02/08 02:46:11;;;;;;;33.08;13.40;;;;;;;;;;5089128;28;20028;-66
2023/02/08 02:49:15;;;;;;;39.58;13.27;;;;;;;;;;5087358;28;20043;-65
2023/02/08 02:51:59;;;;;;;38.15;13.50;;;;;;;;;;5083028;28;20127;-66
2023/02/08 02:54:30;;;;;;;36.25;14.45;;;;;;;;;;5089350;28;20481;-66
2023/02/08 02:56:59;;;;;;;33.90;13.20;;;;;;;;;;5086219;28;20031;-66
2023/02/08 02:59:25;;;;;;;32.22;13.30;;;;;;;;;;5075656;28;20023;-67
2023/02/08 03:01:53;;;;;;;32.95;13.40;;;;;;;;;;5073229;28;20409;-66
2023/02/08 03:04:38;;;;;;;36.17;14.63;;;;;;;;;;5087401;28;20019;-66
2023/02/08 03:07:18;;;;;;;32.97;13.48;;;;;;;;;;5072679;28;20056;-64
2023/02/08 03:09:46;;;;;;;36.83;13.73;;;;;;;;;;5082602;28;20043;-64
2023/02/08 03:12:26;;;;;;;33.17;12.70;;;;;;;;;;5084815;28;20039;-65
2023/02/08 03:14:51;;;;;;;34.78;13.82;;;;;;;;;;5092822;28;20024;-64
2023/02/08 03:17:19;;;;;;;37.13;14.00;;;;;;;;;;5090266;28;20028;-65
2023/02/08 03:19:52;;;;;;;34.13;13.93;;;;;;;;;;5072822;28;20021;-64
2023/02/08 03:22:23;;;;;;;37.45;14.30;;;;;;;;;;5089601;28;20024;-66
2023/02/08 03:24:54;;;;;;;31.85;12.90;;;;;;;;;;5088497;28;20028;-65
2023/02/08 03:27:24;;;;;;;35.58;14.40;;;;;;;;;;5086581;28;20103;-63
2023/02/08 03:30:00;;;;;;;38.22;14.43;;;;;;;;;;5092990;28;20024;-66
2023/02/08 03:32:28;;;;;;;31.05;12.95;;;;;;;;;;5089852;28;20047;-65
2023/02/08 03:35:03;;;;;;;37.60;14.23;;;;;;;;;;5086996;28;20028;-65
2023/02/08 03:37:33;;;;;;;38.85;14.40;;;;;;;;;;5072287;28;20086;-65
2023/02/08 03:40:03;;;;;;;32.25;12.75;;;;;;;;;;5075476;28;20484;-65
2023/02/08 03:42:31;;;;;;;33.03;12.93;;;;;;;;;;5079682;28;20035;-65
2023/02/08 03:44:59;;;;;;;32.63;13.20;;;;;;;;;;5092618;28;20024;-65
2023/02/08 03:47:26;;;;;;;34.60;13.07;;;;;;;;;;5072390;28;20086;-65
2023/02/08 03:49:52;;;;;;;36.83;13.07;;;;;;;;;;5077147;28;20032;-65
2023/02/08 03:52:17;;;;;;;31.63;13.50;;;;;;;;;;5080249;28;20028;-65
2023/02/08 03:54:49;;;;;;;33.92;13.43;;;;;;;;;;5089569;28;20497;-64
2023/02/08 03:57:26;;;;;;;30.52;12.27;;;;;;;;;;5076483;28;20082;-65
2023/02/08 03:59:58;;;;;;;34.40;13.27;;;;;;;;;;5082723;28;20492;-66
2023/02/08 04:02:26;;;;;;;37.50;14.32;;;;;;;;;;5088940;28;20008;-65
2023/02/08 04:04:52;;;;;;;33.83;13.55;;;;;;;;;;5091856;28;20081;-64
2023/02/08 04:07:17;;;;;;;36.08;13.60;;;;;;;;;;5092063;28;20111;-64
2023/02/08 04:09:43;;;;;;;34.38;13.55;;;;;;;;;;5088770;28;20119;-64
2023/02/08 04:12:08;;;;;;;35.60;13.23;;;;;;;;;;5088702;28;20106;-64
2023/02/08 04:14:33;;;;;;;34.03;13.67;;;;;;;;;;5089420;28;20425;-66
2023/02/08 04:16:58;;;;;;;31.80;12.82;;;;;;;;;;5081354;28;20851;-65
2023/02/08 04:19:24;;;;;;;32.72;12.70;;;;;;;;;;5071892;28;20027;-64
2023/02/08 04:21:49;;;;;;;32.90;12.77;;;;;;;;;;5079617;28;20024;-64
2023/02/08 04:24:14;;;;;;;32.13;12.80;;;;;;;;;;5081537;28;20028;-67
2023/02/08 04:26:39;;;;;;;31.95;12.63;;;;;;;;;;5089409;28;20027;-64
2023/02/08 04:29:04;;;;;;;34.65;13.02;;;;;;;;;;5087020;28;20127;-64
2023/02/08 04:31:29;;;;;;;32.50;13.23;;;;;;;;;;5080538;28;20572;-65
2023/02/08 04:33:54;;;;;;;35.17;13.37;;;;;;;;;;5075535;28;20081;-65
2023/02/08 04:36:20;;;;;;;37.40;14.27;;;;;;;;;;5090068;28;20072;-65
2023/02/08 04:38:45;;;;;;;34.30;12.80;;;;;;;;;;5076417;28;20024;-65
2023/02/08 04:41:10;;;;;;;34.85;13.27;;;;;;;;;;5074308;28;20466;-66
2023/02/08 04:43:35;;;;;;;34.65;14.15;;;;;;;;;;5076092;28;20024;-66
2023/02/08 04:46:01;;;;;;;37.20;13.77;;;;;;;;;;5069841;28;20052;-65
2023/02/08 04:48:26;;;;;;;36.85;14.57;;;;;;;;;;5071074;28;21005;-66
2023/02/08 04:50:53;;;;;;;35.00;12.93;;;;;;;;;;5085468;28;20024;-64
2023/02/08 04:53:18;;;;;;;39.97;13.15;;;;;;;;;;5089887;28;20024;-66
2023/02/08 04:55:44;;;;;;;36.03;13.55;;;;;;;;;;5091474;28;20468;-63
2023/02/08 04:58:09;;;;;;;38.40;13.50;;;;;;;;;;5075633;28;20024;-66
2023/02/08 05:00:34;;;;;;;35.97;12.98;;;;;;;;;;5098408;28;20043;-66
2023/02/08 05:02:59;;;;;;;38.43;13.60;;;;;;;;;;5080696;28;20032;-65
2023/02/08 05:05:25;;;;;;;40.45;14.25;;;;;;;;;;5081771;28;20050;-65
2023/02/08 05:07:50;;;;;;;37.13;14.57;;;;;;;;;;5090615;28;20020;-65
2023/02/08 05:10:15;;;;;;;41.67;15.07;;;;;;;;;;5083438;28;20032;-65
2023/02/08 05:12:41;;;;;;;41.22;15.23;;;;;;;;;;5087574;28;20455;-64
2023/02/08 05:15:06;;;;;;;39.58;14.93;;;;;;;;;;5073726;28;20099;-64
2023/02/08 05:17:31;;;;;;;39.80;14.63;;;;;;;;;;5077498;28;20021;-64
2023/02/08 05:19:56;;;;;;;40.37;15.23;;;;;;;;;;5091368;28;20066;-66
2023/02/08 05:22:22;;;;;;;43.10;15.20;;;;;;;;;;5087304;28;20046;-65
2023/02/08 05:24:47;;;;;;;36.73;14.77;;;;;;;;;;5083166;28;20185;-65
2023/02/08 05:27:12;;;;;;;39.73;15.83;;;;;;;;;;5096824;28;20100;-66
2023/02/08 05:29:37;;;;;;;41.90;15.70;;;;;;;;;;5082432;28;20091;-64
2023/02/08 05:32:02;;;;;;;44.10;15.57;;;;;;;;;;5079112;28;20025;-64
2023/02/08 05:34:27;;;;;;;42.50;15.17;;;;;;;;;;5075346;28;20023;-64
2023/02/08 05:36:53;;;;;;;42.72;16.77;;;;;;;;;;5083358;28;20024;-65
2023/02/08 05:39:18;;;;;;;39.33;14.90;;;;;;;;;;5076273;28;20043;-64
2023/02/08 05:41:43;;;;;;;38.47;15.10;;;;;;;;;;5085724;28;20651;-64
2023/02/08 05:44:08;;;;;;;41.38;15.50;;;;;;;;;;5075392;28;20350;-64
2023/02/08 05:46:34;;;;;;;44.30;15.17;;;;;;;;;;5084533;28;20024;-65
2023/02/08 05:48:59;;;;;;;40.83;15.85;;;;;;;;;;5088234;28;20048;-65
2023/02/08 05:51:24;;;;;;;44.28;16.58;;;;;;;;;;5071867;28;20054;-65
2023/02/08 05:53:49;;;;;;;45.93;16.03;;;;;;;;;;5084484;28;20035;-64
2023/02/08 05:56:14;;;;;;;39.55;14.43;;;;;;;;;;5077767;28;20008;-65
2023/02/08 05:58:40;;;;;;;42.33;15.90;;;;;;;;;;5090785;28;20035;-64
2023/02/08 06:01:09;;;;;;;45.88;16.42;;;;;;;;;;5071934;28;20020;-65
2023/02/08 06:03:34;;;;;;;45.28;15.13;;;;;;;;;;5072669;28;20028;-65
2023/02/08 06:06:00;;;;;;;42.87;15.50;;;;;;;;;;5081204;28;20024;-65
2023/02/08 06:08:25;;;;;;;42.75;16.10;;;;;;;;;;5089774;28;20063;-65
2023/02/08 06:10:50;;;;;;;42.40;15.00;;;;;;;;;;5079801;28;20023;-64
2023/02/08 06:13:15;;;;;;;43.63;16.63;;;;;;;;;;5081261;28;20050;-65
2023/02/08 06:15:41;;;;;;;42.87;15.40;;;;;;;;;;5082494;28;20048;-64
2023/02/08 06:18:08;;;;;;;47.53;16.77;;;;;;;;;;5091021;28;20020;-66
2023/02/08 06:20:33;;;;;;;47.50;18.05;;;;;;;;;;5080401;28;20032;-65
2023/02/08 06:22:58;;;;;;;53.65;17.30;;;;;;;;;;5090117;28;20028;-65
2023/02/08 06:25:23;;;;;;;50.03;18.17;;;;;;;;;;5090287;28;20077;-65
2023/02/08 06:27:48;;;;;;;44.15;16.35;;;;;;;;;;5093822;28;20043;-65
2023/02/08 06:30:13;;;;;;;48.10;17.73;;;;;;;;;;5093960;28;20028;-64
2023/02/08 06:32:38;;;;;;;48.15;16.67;;;;;;;;;;5094625;28;20016;-65
2023/02/08 06:35:04;;;;;;;49.42;16.45;;;;;;;;;;5094239;28;20016;-66
2023/02/08 06:37:29;;;;;;;48.53;16.93;;;;;;;;;;5093707;28;20040;-65
2023/02/08 06:39:54;;;;;;;50.58;17.15;;;;;;;;;;5090027;28;20465;-65
2023/02/08 06:42:19;;;;;;;49.15;16.88;;;;;;;;;;5094051;28;20473;-65
2023/02/08 06:44:45;;;;;;;44.60;16.03;;;;;;;;;;5094391;28;20031;-65
2023/02/08 06:47:10;;;;;;;45.83;16.45;;;;;;;;;;5093874;28;20433;-66
2023/02/08 06:49:35;;;;;;;47.77;17.23;;;;;;;;;;5094271;28;20039;-65
2023/02/08 06:52:01;;;;;;;48.35;17.92;;;;;;;;;;5095473;28;20043;-66
2023/02/08 06:54:26;;;;;;;45.83;15.60;;;;;;;;;;5093171;28;20069;-66
2023/02/08 06:56:51;;;;;;;43.55;16.42;;;;;;;;;;5094521;28;20030;-66
2023/02/08 06:59:16;;;;;;;45.75;17.42;;;;;;;;;;5095391;28;20448;-65
2023/02/08 07:01:41;;;;;;;51.67;16.50;;;;;;;;;;5093670;28;20020;-65
2023/02/08 07:04:06;;;;;;;47.10;16.77;;;;;;;;;;5093762;28;20516;-65
2023/02/08 07:06:32;;;;;;;44.20;15.70;;;;;;;;;;5090998;28;20021;-66
2023/02/08 07:08:57;;;;;;;45.93;17.80;;;;;;;;;;5089171;28;20400;-64
2023/02/08 07:11:22;;;;;;;47.08;17.23;;;;;;;;;;5097497;28;20365;-65
2023/02/08 07:13:51;;;;;;;52.00;17.73;;;;;;;;;;5097262;28;20081;-64
2023/02/08 07:16:17;;;;;;;46.45;16.77;;;;;;;;;;5093543;28;20051;-65
2023/02/08 07:18:42;;;;;;;49.92;16.13;;;;;;;;;;5093334;28;20035;-65
2023/02/08 07:21:07;;;;;;;44.47;16.30;;;;;;;;;;5090488;28;20016;-66
2023/02/08 07:23:32;;;;;;;42.40;17.17;;;;;;;;;;5082905;28;20024;-65
2023/02/08 07:26:02;;;;;;;47.63;16.10;;;;;;;;;;5090851;28;20125;-65
2023/02/08 07:28:28;;;;;;;47.70;16.88;;;;;;;;;;5091073;28;20016;-66
2023/02/08 07:30:53;;;;;;;49.10;18.60;;;;;;;;;;5077393;28;20377;-65
2023/02/08 07:33:19;;;;;;;44.00;16.85;;;;;;;;;;5082210;28;20027;-65
2023/02/08 07:35:44;;;;;;;49.50;17.85;;;;;;;;;;5092971;28;20107;-64
2023/02/08 07:38:09;;;;;;;48.27;16.70;;;;;;;;;;5073800;28;20484;-65
2023/02/08 07:40:34;;;;;;;42.93;16.37;;;;;;;;;;5078555;28;20024;-65
2023/02/08 07:43:00;;;;;;;47.55;18.23;;;;;;;;;;5088490;28;20451;-65
2023/02/08 07:45:25;;;;;;;44.33;16.97;;;;;;;;;;5088817;28;20490;-65
2023/02/08 07:47:50;;;;;;;49.37;17.70;;;;;;;;;;5072427;28;20042;-65
2023/02/08 07:50:15;;;;;;;51.87;17.77;;;;;;;;;;5075599;28;20553;-64
2023/02/08 07:52:42;;;;;;;45.40;17.67;;;;;;;;;;5075625;28;20145;-64
2023/02/08 07:55:08;;;;;;;45.92;17.33;;;;;;;;;;5072277;28;20543;-65
2023/02/08 07:57:34;;;;;;;41.33;16.48;;;;;;;;;;5081980;28;20477;-65
2023/02/08 07:59:59;;;;;;;41.88;16.55;;;;;;;;;;5085931;28;20074;-63
2023/02/08 08:02:24;;;;;;;46.88;17.52;;;;;;;;;;5082834;28;20119;-65
2023/02/08 08:04:49;;;;;;;46.05;17.23;;;;;;;;;;5087075;28;20035;-64
2023/02/08 08:07:14;;;;;;;47.80;18.57;;;;;;;;;;5091255;28;20461;-64
2023/02/08 08:09:39;;;;;;;43.05;17.17;;;;;;;;;;5075252;28;20090;-64
2023/02/08 08:12:05;;;;;;;48.80;17.48;;;;;;;;;;5079238;28;20084;-65
2023/02/08 08:14:30;;;;;;;45.17;16.63;;;;;;;;;;5088743;28;20383;-65
2023/02/08 08:16:55;;;;;;;44.20;17.85;;;;;;;;;;5092109;28;20016;-65
2023/02/08 08:19:20;;;;;;;45.95;17.52;;;;;;;;;;5075556;28;20058;-65
2023/02/08 08:21:45;;;;;;;48.60;17.43;;;;;;;;;;5078559;28;20039;-65
2023/02/08 08:24:10;;;;;;;46.05;17.73;;;;;;;;;;5092479;28;20155;-65
2023/02/08 08:26:35;;;;;;;49.27;18.27;;;;;;;;;;5091494;28;20065;-64
2023/02/08 08:29:01;;;;;;;45.70;17.90;;;;;;;;;;5092787;28;20059;-64
2023/02/08 08:31:27;;;;;;;48.42;18.30;;;;;;;;;;5081112;28;20107;-65
2023/02/08 08:33:52;;;;;;;41.50;16.63;;;;;;;;;;5091486;28;20024;-66
2023/02/08 08:36:17;;;;;;;45.03;17.67;;;;;;;;;;5093356;28;20024;-66
2023/02/08 08:38:42;;;;;;;42.70;15.93;;;;;;;;;;5095448;28;20032;-64
2023/02/08 08:41:08;;;;;;;46.17;16.83;;;;;;;;;;5091708;28;20070;-65
2023/02/08 08:43:33;;;;;;;41.75;16.13;;;;;;;;;;5095906;28;20024;-66
2023/02/08 08:45:58;;;;;;;42.33;16.40;;;;;;;;;;5097059;28;20020;-64
2023/02/08 08:48:23;;;;;;;45.35;16.90;;;;;;;;;;5094999;28;20032;-64
2023/02/08 08:50:48;;;;;;;40.28;15.50;;;;;;;;;;5093537;28;20035;-65
2023/02/08 08:53:14;;;;;;;44.50;17.27;;;;;;;;;;5086025;28;20472;-66
2023/02/08 08:55:39;;;;;;;39.40;15.23;;;;;;;;;;5086269;28;20040;-65
2023/02/08 08:58:04;;;;;;;40.13;15.30;;;;;;;;;;5087836;28;20055;-65
2023/02/08 09:00:29;;;;;;;38.97;15.18;;;;;;;;;;5090326;28;20069;-64
2023/02/08 09:02:54;;;;;;;40.33;15.70;;;;;;;;;;5090547;28;20035;-65
2023/02/08 09:05:19;;;;;;;41.13;14.93;;;;;;;;;;5089240;28;20073;-65
2023/02/08 09:07:45;;;;;;;41.38;15.02;;;;;;;;;;5091456;28;20426;-65
2023/02/08 09:10:10;;;;;;;39.75;15.13;;;;;;;;;;5087633;28;20036;-65
2023/02/08 09:12:35;;;;;;;34.03;13.27;;;;;;;;;;5090449;28;20385;-66
2023/02/08 09:15:00;;;;;;;37.87;13.43;;;;;;;;;;5090559;28;20028;-65
2023/02/08 09:17:25;;;;;;;38.28;13.77;;;;;;;;;;5091266;28;20027;-65
2023/02/08 09:19:50;;;;;;;38.78;14.18;;;;;;;;;;5087749;28;20028;-66
2023/02/08 09:22:16;;;;;;;34.83;13.47;;;;;;;;;;5091039;28;20377;-65
2023/02/08 09:24:41;;;;;;;35.73;13.83;;;;;;;;;;5091393;28;20035;-65
2023/02/08 09:27:06;;;;;;;34.85;13.23;;;;;;;;;;5090329;28;20046;-66
2023/02/08 09:29:32;;;;;;;37.50;14.70;;;;;;;;;;5083567;28;20119;-66
2023/02/08 09:31:57;;;;;;;37.17;13.85;;;;;;;;;;5086291;28;20071;-68
2023/02/08 09:34:23;;;;;;;34.20;13.98;;;;;;;;;;5090459;28;20075;-65
2023/02/08 09:36:48;;;;;;;38.53;13.55;;;;;;;;;;5091290;28;20027;-66
2023/02/08 09:39:14;;;;;;;31.33;12.85;;;;;;;;;;5088910;28;20093;-66
2023/02/08 09:41:42;;;;;;;28.70;12.00;;;;;;;;;;5089719;28;20550;-66
2023/02/08 09:44:07;;;;;;;33.42;13.25;;;;;;;;;;5090713;28;20024;-65
2023/02/08 09:46:37;;;;;;;29.27;12.05;;;;;;;;;;5090566;28;20029;-66
2023/02/08 09:49:03;;;;;;;34.05;12.77;;;;;;;;;;5081325;28;20123;-67
2023/02/08 09:51:32;;;;;;;30.15;12.25;;;;;;;;;;5090348;28;20107;-68
2023/02/08 09:54:00;;;;;;;33.40;13.32;;;;;;;;;;5091087;28;20511;-69
2023/02/08 09:56:28;;;;;;;36.53;13.05;;;;;;;;;;5091313;28;20028;-65
2023/02/08 09:58:53;;;;;;;31.35;12.88;;;;;;;;;;5084044;28;20016;-67
2023/02/08 10:01:37;;;;;;;32.70;12.88;;;;;;;;;;5081155;28;20070;-66
2023/02/08 10:04:07;;;;;;;37.70;14.32;;;;;;;;;;5090517;28;20401;-67
2023/02/08 10:06:33;;;;;;;37.25;14.10;;;;;;;;;;5090711;28;20078;-67
2023/02/08 10:08:59;;;;;;;33.80;13.33;;;;;;;;;;5089586;28;20059;-67
2023/02/08 10:11:30;;;;;;;31.27;12.90;;;;;;;;;;5090303;28;20481;-65
2023/02/08 10:14:17;;;;;;;34.05;14.23;;;;;;;;;;5082321;28;20412;-67
2023/02/08 10:16:55;;;;;;;33.60;12.90;;;;;;;;;;5089191;28;20084;-66
2023/02/08 10:19:23;;;;;;;31.67;13.10;;;;;;;;;;5096963;28;20439;-69
2023/02/08 10:22:07;;;;;;;37.33;14.15;;;;;;;;;;5098320;28;20384;-67
2023/02/08 10:25:04;;;;;;;33.58;13.57;;;;;;;;;;5095155;28;20043;-68
2023/02/08 10:27:29;;;;;;;34.15;12.25;;;;;;;;;;5073866;28;20070;-69
2023/02/08 10:29:55;;;;;;;30.42;12.27;;;;;;;;;;5106415;28;20036;-68
2023/02/08 10:32:34;;;;;;;31.58;12.45;;;;;;;;;;5095729;28;20049;-68
2023/02/08 10:35:01;;;;;;;30.80;12.00;;;;;;;;;;5091397;28;20028;-67
2023/02/08 10:37:29;;;;;;;35.10;12.50;;;;;;;;;;5091083;28;20099;-66
2023/02/08 10:39:55;;;;;;;30.10;12.07;;;;;;;;;;5093770;28;20031;-66
2023/02/08 10:42:21;;;;;;;29.10;11.32;;;;;;;;;;5094060;28;20086;-67
2023/02/08 10:45:05;;;;;;;26.95;11.25;;;;;;;;;;5095150;28;20031;-66
2023/02/08 10:47:47;;;;;;;31.00;12.55;;;;;;;;;;5086856;28;20533;-67
2023/02/08 10:50:18;;;;;;;30.65;12.70;;;;;;;;;;5092825;28;20522;-66
2023/02/08 10:52:43;;;;;;;29.00;11.55;;;;;;;;;;5093817;28;20016;-67
2023/02/08 10:55:13;;;;;;;27.95;11.98;;;;;;;;;;5101996;28;20031;-69
2023/02/08 10:57:38;;;;;;;30.92;11.63;;;;;;;;;;5103686;28;20031;-68
2023/02/08 11:00:06;;;;;;;28.05;11.02;;;;;;;;;;5113786;28;20027;-67
2023/02/08 11:02:33;;;;;;;27.98;11.13;;;;;;;;;;5116543;28;20015;-68
2023/02/08 11:05:01;;;;;;;27.55;11.23;;;;;;;;;;5115505;28;20050;-70
2023/02/08 11:07:27;;;;;;;30.05;11.95;;;;;;;;;;5098466;28;20005;-68
2023/02/08 11:09:52;;;;;;;27.38;10.40;;;;;;;;;;5086032;28;20454;-66
2023/02/08 11:12:18;;;;;;;28.93;11.30;;;;;;;;;;5073718;28;20024;-70
2023/02/08 11:14:47;;;;;;;31.65;11.05;;;;;;;;;;5074037;28;20421;-67
2023/02/08 11:17:22;;;;;;;26.15;11.02;;;;;;;;;;5083131;28;20115;-66
2023/02/08 11:19:48;;;;;;;29.23;11.57;;;;;;;;;;5091548;28;20042;-67
2023/02/08 11:22:14;;;;;;;29.27;11.13;;;;;;;;;;5091938;28;20028;-68
2023/02/08 11:24:42;;;;;;;25.77;10.50;;;;;;;;;;5093066;28;20016;-67
2023/02/08 11:27:17;;;;;;;23.48;10.00;;;;;;;;;;5093357;28;20024;-67
2023/02/08 11:29:42;;;;;;;25.50;10.45;;;;;;;;;;5094075;28;20028;-67
2023/02/08 11:32:14;;;;;;;23.83;10.23;;;;;;;;;;5093716;28;20059;-65
2023/02/08 11:34:39;;;;;;;25.38;10.27;;;;;;;;;;5093880;28;20028;-66
2023/02/08 11:37:24;;;;;;;26.90;10.77;;;;;;;;;;5094641;28;20067;-67
2023/02/08 11:39:53;;;;;;;24.55;10.00;;;;;;;;;;5095303;28;20024;-68
2023/02/08 11:42:20;;;;;;;25.40;10.13;;;;;;;;;;5091781;28;20107;-66
2023/02/08 11:44:45;;;;;;;30.58;11.25;;;;;;;;;;5094805;28;20048;-66
2023/02/08 11:47:14;;;;;;;25.95;10.60;;;;;;;;;;5097598;28;20016;-66
2023/02/08 11:49:43;;;;;;;25.77;9.73;;;;;;;;;;5092004;28;20036;-65
2023/02/08 11:52:19;;;;;;;29.25;10.18;;;;;;;;;;5089269;28;20024;-67
2023/02/08 11:54:44;;;;;;;27.13;10.52;;;;;;;;;;5092485;28;20047;-66
2023/02/08 11:57:11;;;;;;;29.07;10.83;;;;;;;;;;5092486;28;20061;-67
2023/02/08 11:59:36;;;;;;;25.10;11.00;;;;;;;;;;5092404;28;20023;-68
2023/02/08 12:02:19;;;;;;;25.90;10.53;;;;;;;;;;5083751;28;20020;-68
2023/02/08 12:04:44;;;;;;;25.05;9.95;;;;;;;;;;5085143;28;20431;-67
2023/02/08 12:07:09;;;;;;;25.20;9.10;;;;;;;;;;5092636;28;20085;-70
2023/02/08 12:09:40;;;;;;;23.80;9.03;;;;;;;;;;5095246;28;20111;-67
2023/02/08 12:12:19;;;;;;;24.65;10.07;;;;;;;;;;5085337;28;20539;-68
2023/02/08 12:14:59;;;;;;;26.85;9.95;;;;;;;;;;5092187;28;20592;-68
2023/02/08 12:17:43;;;;;;;26.10;10.48;;;;;;;;;;5091912;28;20432;-66
2023/02/08 12:20:14;;;;;;;25.50;9.80;;;;;;;;;;5090363;28;20023;-68
2023/02/08 12:22:41;;;;;;;22.55;9.68;;;;;;;;;;5091527;28;20032;-66
2023/02/08 12:25:42;;;;;;;25.95;9.98;;;;;;;;;;5091286;28;20014;-68
2023/02/08 12:28:10;;;;;;;24.50;9.77;;;;;;;;;;5066484;28;20028;-67
2023/02/08 12:30:41;;;;;;;22.90;9.00;;;;;;;;;;5086490;28;20067;-67
2023/02/08 12:33:15;;;;;;;28.48;10.10;;;;;;;;;;5091700;28;20452;-68
2023/02/08 12:35:43;;;;;;;23.10;8.73;;;;;;;;;;5091668;28;20032;-66
2023/02/08 12:41:05;;;;;;;22.38;8.95;;;;;;;;;;5091087;28;20760;-64
2023/02/08 12:43:42;;;;;;;23.85;9.63;;;;;;;;;;5091755;28;20024;-65
2023/02/08 12:46:17;;;;;;;22.52;8.98;;;;;;;;;;5085934;28;20036;-65
2023/02/08 12:49:01;;;;;;;20.58;8.07;;;;;;;;;;5086000;28;20027;-66
2023/02/08 12:51:33;;;;;;;20.52;9.13;;;;;;;;;;5090982;28;20362;-67
2023/02/08 12:54:10;;;;;;;19.70;7.57;;;;;;;;;;5090826;28;20393;-66
2023/02/08 12:56:39;;;;;;;23.15;8.63;;;;;;;;;;5087087;28;20063;-67
2023/02/08 12:59:05;;;;;;;20.58;7.57;;;;;;;;;;5091199;28;20019;-67
2023/02/08 13:01:35;;;;;;;20.40;7.43;;;;;;;;;;5090417;28;20016;-67
2023/02/08 13:04:09;;;;;;;20.35;8.40;;;;;;;;;;5090816;28;20027;-66
2023/02/08 13:06:38;;;;;;;21.80;8.00;;;;;;;;;;5086803;28;20484;-66
2023/02/08 13:09:15;;;;;;;20.13;8.32;;;;;;;;;;5090699;28;20054;-67
2023/02/08 13:11:58;;;;;;;17.75;7.68;;;;;;;;;;5090148;28;20047;-66
2023/02/08 13:14:34;;;;;;;18.48;8.27;;;;;;;;;;5090857;28;20024;-67
2023/02/08 13:17:04;;;;;;;19.70;7.93;;;;;;;;;;5087383;28;20061;-66
2023/02/08 13:19:45;;;;;;;19.70;8.20;;;;;;;;;;5082491;28;20090;-67
2023/02/08 13:22:11;;;;;;;21.88;8.23;;;;;;;;;;5090793;28;20024;-66
2023/02/08 13:24:40;;;;;;;23.88;8.43;;;;;;;;;;5091044;28;20031;-68
2023/02/08 13:27:09;;;;;;;23.17;8.23;;;;;;;;;;5088316;28;20047;-68
2023/02/08 13:29:35;;;;;;;21.15;8.50;;;;;;;;;;5091812;28;20111;-64
2023/02/08 13:32:13;;;;;;;22.43;9.40;;;;;;;;;;5091639;28;20051;-66
2023/02/08 13:34:44;;;;;;;21.08;8.23;;;;;;;;;;5090372;28;20487;-67
2023/02/08 13:37:19;;;;;;;19.08;8.18;;;;;;;;;;5087057;28;20020;-69
2023/02/08 13:39:45;;;;;;;23.23;9.32;;;;;;;;;;5090229;28;20423;-66
2023/02/08 13:42:29;;;;;;;21.45;9.00;;;;;;;;;;5090348;28;20020;-65
2023/02/08 13:44:56;;;;;;;20.38;8.30;;;;;;;;;;5090434;28;20028;-68
2023/02/08 13:47:31;;;;;;;23.73;8.90;;;;;;;;;;5087784;28;20012;-66
2023/02/08 13:49:58;;;;;;;19.52;7.80;;;;;;;;;;5094799;28;20473;-65
2023/02/08 13:52:23;;;;;;;;;;;;;;;;;;5091104;28;20351;-67
2023/02/08 13:55:08;;;;;;;20.20;8.27;;;;;;;;;;5090225;28;19973;-66
2023/02/08 13:57:53;;;;;;;22.98;9.23;;;;;;;;;;5085854;28;20035;-68
2023/02/08 14:00:29;;;;;;;20.95;8.55;;;;;;;;;;5090661;28;20070;-67
2023/02/08 14:03:13;;;;;;;19.67;7.80;;;;;;;;;;5095998;28;20031;-67
2023/02/08 14:05:56;;;;;;;19.95;8.05;;;;;;;;;;5103214;28;20091;-68
2023/02/08 14:08:25;;;;;;;20.17;8.98;;;;;;;;;;5115040;28;20024;-68
2023/02/08 14:11:03;;;;;;;20.70;8.85;;;;;;;;;;5112635;28;20036;-68
2023/02/08 14:13:34;;;;;;;22.10;7.97;;;;;;;;;;5112900;28;20020;-67
2023/02/08 14:16:18;;;;;;;21.27;8.23;;;;;;;;;;5110070;28;20031;-67
2023/02/08 14:19:09;;;;;;;20.27;8.40;;;;;;;;;;5087765;28;20666;-65
2023/02/08 14:21:53;;;;;;;20.27;8.00;;;;;;;;;;5077323;28;20028;-68
2023/02/08 14:24:23;;;;;;;20.17;7.75;;;;;;;;;;5094538;28;20024;-68
2023/02/08 14:26:48;;;;;;;18.25;7.68;;;;;;;;;;5094447;28;20396;-65
2023/02/08 14:29:20;;;;;;;20.20;7.35;;;;;;;;;;5090626;28;20035;-68